Time;durP1;ratioP1;P1;durP2;ratioP2;P2;SDS_P1;SDS_P2;PMS_P1;PMS_P2;Temp;Humidity;BMP_temperature;BMP_pressure;BME280_temperature;BME280_humidity;BME280_pressure;Samples;Min_cycle;Max_cycle;Signal;HPM_P1;HPM_P2
2021/11/23 00:01:12;;;;;;;9.38;3.10;;;5.30;99.90;;;;;;5023648;28;20041;-66
2021/11/23 00:03:37;;;;;;;11.98;3.15;;;5.30;99.90;;;;;;5018834;28;20083;-66
2021/11/23 00:06:03;;;;;;;7.10;2.85;;;5.40;99.90;;;;;;5023718;28;20029;-65
2021/11/23 00:08:29;;;;;;;12.75;2.80;;;5.40;99.90;;;;;;5031573;28;20113;-65
2021/11/23 00:10:55;;;;;;;8.98;3.03;;;5.50;99.90;;;;;;5002947;28;20042;-65
2021/11/23 00:13:20;;;;;;;10.98;3.50;;;5.50;99.90;;;;;;5029797;28;20033;-65
2021/11/23 00:15:46;;;;;;;8.02;2.85;;;5.50;99.90;;;;;;5026287;28;20052;-65
2021/11/23 00:18:14;;;;;;;11.15;2.72;;;5.60;99.90;;;;;;5027012;28;20048;-65
2021/11/23 00:20:42;;;;;;;11.90;3.03;;;5.60;99.90;;;;;;5023946;28;20040;-65
2021/11/23 00:23:09;;;;;;;11.57;2.92;;;5.60;99.90;;;;;;5027773;28;20347;-65
2021/11/23 00:25:35;;;;;;;12.45;2.95;;;5.70;99.90;;;;;;5022743;28;20041;-65
2021/11/23 00:28:00;;;;;;;14.05;2.50;;;5.70;99.90;;;;;;5026821;28;20550;-65
2021/11/23 00:30:29;;;;;;;11.98;3.13;;;5.80;99.90;;;;;;5022399;28;20049;-66
2021/11/23 00:32:55;;;;;;;12.98;3.25;;;5.80;99.90;;;;;;5029165;28;20423;-66
2021/11/23 00:35:22;;;;;;;15.15;2.55;;;5.90;99.90;;;;;;5003090;28;20362;-65
2021/11/23 00:37:49;;;;;;;12.63;2.55;;;5.90;99.90;;;;;;5012779;28;20034;-65
2021/11/23 00:40:15;;;;;;;10.73;2.38;;;6.00;99.90;;;;;;5024305;28;20112;-66
2021/11/23 00:42:41;;;;;;;13.45;2.70;;;6.00;99.90;;;;;;5027001;28;20462;-66
2021/11/23 00:45:08;;;;;;;12.30;2.40;;;6.10;99.90;;;;;;5026406;28;20041;-65
2021/11/23 00:47:34;;;;;;;8.30;2.20;;;6.10;99.90;;;;;;5020857;28;20045;-65
2021/11/23 00:50:00;;;;;;;17.13;2.40;;;6.20;99.90;;;;;;5029678;28;20041;-65
2021/11/23 00:52:26;;;;;;;8.75;2.65;;;6.20;99.90;;;;;;5005576;28;20117;-65
2021/11/23 00:54:51;;;;;;;12.75;2.22;;;6.30;99.90;;;;;;5026121;28;20238;-65
2021/11/23 00:57:17;;;;;;;11.23;2.25;;;6.30;99.90;;;;;;5022125;28;20091;-66
2021/11/23 00:59:43;;;;;;;12.82;2.75;;;6.40;99.90;;;;;;5028765;28;20053;-66
2021/11/23 01:02:09;;;;;;;12.02;2.13;;;6.40;99.90;;;;;;5004757;28;20390;-66
2021/11/23 01:04:36;;;;;;;11.60;2.22;;;6.40;99.90;;;;;;5029494;28;20126;-66
2021/11/23 01:07:02;;;;;;;10.68;2.50;;;6.50;99.90;;;;;;5021363;28;20041;-66
2021/11/23 01:09:28;;;;;;;14.35;2.35;;;6.50;99.90;;;;;;5028994;28;20098;-66
2021/11/23 01:11:53;;;;;;;7.10;1.70;;;6.60;99.90;;;;;;5017684;28;20045;-66
2021/11/23 01:14:19;;;;;;;14.57;2.33;;;6.60;99.90;;;;;;5029720;28;20038;-66
2021/11/23 01:16:48;;;;;;;12.40;2.20;;;6.60;99.90;;;;;;5022543;28;20578;-66
2021/11/23 01:19:16;;;;;;;13.93;2.67;;;6.60;99.90;;;;;;5022968;28;20042;-66
2021/11/23 01:21:42;;;;;;;13.18;2.70;;;6.60;99.90;;;;;;5024294;28;20109;-66
2021/11/23 01:24:08;;;;;;;15.35;2.53;;;6.70;99.90;;;;;;5028480;28;20041;-66
2021/11/23 01:26:34;;;;;;;16.85;2.30;;;6.70;99.90;;;;;;5024882;28;20091;-66
2021/11/23 01:29:00;;;;;;;12.73;3.70;;;6.70;99.90;;;;;;5023689;28;20034;-66
2021/11/23 01:31:25;;;;;;;9.73;2.35;;;6.70;99.90;;;;;;5029596;28;20075;-66
2021/11/23 01:33:52;;;;;;;11.98;2.35;;;6.80;99.90;;;;;;5024441;28;20077;-66
2021/11/23 01:36:18;;;;;;;12.65;2.47;;;6.80;99.90;;;;;;5027722;28;20030;-66
2021/11/23 01:38:43;;;;;;;12.52;3.17;;;6.80;99.90;;;;;;5023142;28;20040;-66
2021/11/23 01:41:10;;;;;;;13.13;3.10;;;6.80;99.90;;;;;;5028526;28;20045;-66
2021/11/23 01:43:36;;;;;;;8.63;2.30;;;6.80;99.90;;;;;;5017249;28;20034;-66
2021/11/23 01:46:04;;;;;;;9.23;2.40;;;6.90;99.90;;;;;;5027084;28;20128;-66
2021/11/23 01:48:30;;;;;;;13.98;2.95;;;6.90;99.90;;;;;;5022549;28;20056;-66
2021/11/23 01:50:56;;;;;;;14.77;2.60;;;6.90;99.90;;;;;;5026490;28;20143;-66
2021/11/23 01:53:22;;;;;;;11.93;3.28;;;7.00;99.90;;;;;;5020661;28;20128;-66
2021/11/23 01:55:48;;;;;;;12.98;2.67;;;7.00;99.90;;;;;;5026878;28;20479;-66
2021/11/23 01:58:14;;;;;;;14.55;3.10;;;7.00;99.90;;;;;;5023276;28;20418;-66
2021/11/23 02:00:41;;;;;;;12.15;3.30;;;7.00;99.90;;;;;;5023925;28;20127;-66
2021/11/23 02:03:08;;;;;;;13.43;3.58;;;7.00;99.90;;;;;;5026487;28;20049;-66
2021/11/23 02:05:33;;;;;;;9.13;2.97;;;7.10;99.90;;;;;;5006062;28;20382;-66
2021/11/23 02:07:59;;;;;;;14.70;3.60;;;7.10;99.90;;;;;;5026557;28;20037;-66
2021/11/23 02:10:25;;;;;;;11.07;3.00;;;7.10;99.90;;;;;;5001379;28;20319;-66
2021/11/23 02:12:51;;;;;;;13.23;3.50;;;7.20;99.90;;;;;;5028581;28;20041;-66
2021/11/23 02:15:17;;;;;;;15.18;3.25;;;7.20;99.90;;;;;;5024405;28;20135;-66
2021/11/23 02:17:44;;;;;;;9.65;2.50;;;7.20;99.90;;;;;;5024030;28;20478;-65
2021/11/23 02:20:21;;;;;;;8.52;2.65;;;7.20;99.90;;;;;;5021452;28;20106;-66
2021/11/23 02:22:49;;;;;;;10.77;2.55;;;7.30;99.90;;;;;;5024970;28;20060;-66
2021/11/23 02:25:16;;;;;;;14.82;2.85;;;7.30;99.90;;;;;;5000667;28;20100;-66
2021/11/23 02:27:43;;;;;;;12.80;2.58;;;7.30;99.90;;;;;;5023284;28;20033;-66
2021/11/23 02:30:10;;;;;;;11.85;2.92;;;7.30;99.90;;;;;;5019738;28;20033;-66
2021/11/23 02:32:54;;;;;;;12.88;3.42;;;7.30;99.90;;;;;;5022833;28;20123;-66
2021/11/23 02:35:22;;;;;;;11.77;3.17;;;7.30;99.90;;;;;;5021464;28;20080;-66
2021/11/23 02:37:51;;;;;;;9.27;2.63;;;7.40;99.90;;;;;;5024680;28;20057;-66
2021/11/23 02:40:17;;;;;;;15.95;3.40;;;7.40;99.90;;;;;;5019415;28;20041;-66
2021/11/23 02:42:44;;;;;;;12.07;3.63;;;7.40;99.90;;;;;;5027130;28;20077;-66
2021/11/23 02:45:10;;;;;;;10.82;2.72;;;7.50;99.90;;;;;;5023784;28;20043;-66
2021/11/23 02:47:37;;;;;;;10.05;2.53;;;7.50;99.90;;;;;;5024430;28;20779;-66
2021/11/23 02:50:06;;;;;;;12.20;2.63;;;7.50;99.90;;;;;;5020832;28;20055;-66
2021/11/23 02:52:31;;;;;;;11.02;3.30;;;7.50;99.90;;;;;;5022615;28;20034;-66
2021/11/23 02:55:00;;;;;;;7.85;2.70;;;7.50;99.90;;;;;;5026010;28;20033;-66
2021/11/23 02:57:27;;;;;;;8.50;2.53;;;7.60;99.90;;;;;;5021562;28;20040;-66
2021/11/23 02:59:53;;;;;;;10.68;2.72;;;7.60;99.90;;;;;;5026850;28;20034;-66
2021/11/23 03:02:19;;;;;;;10.90;3.30;;;7.60;99.90;;;;;;5019124;28;20033;-66
2021/11/23 03:04:53;;;;;;;18.92;3.50;;;7.70;99.90;;;;;;5007842;28;20076;-66
2021/11/23 03:07:20;;;;;;;14.75;2.95;;;7.70;99.90;;;;;;5020946;28;20100;-66
2021/11/23 03:09:46;;;;;;;11.77;3.10;;;7.60;99.90;;;;;;5008966;28;20546;-66
2021/11/23 03:12:24;;;;;;;12.93;3.33;;;7.70;99.90;;;;;;5016974;28;20128;-66
2021/11/23 03:14:50;;;;;;;14.18;3.67;;;7.70;99.90;;;;;;5022995;28;20033;-65
2021/11/23 03:17:18;;;;;;;13.00;3.60;;;7.70;99.90;;;;;;5017845;28;20073;-65
2021/11/23 03:19:45;;;;;;;17.35;3.80;;;7.70;99.90;;;;;;5027195;28;20436;-66
2021/11/23 03:22:11;;;;;;;15.50;3.80;;;7.80;99.90;;;;;;5000293;28;20044;-66
2021/11/23 03:24:38;;;;;;;14.32;3.55;;;7.80;99.90;;;;;;5027825;28;20559;-66
2021/11/23 03:27:06;;;;;;;16.48;3.47;;;7.80;99.90;;;;;;5018990;28;20304;-66
2021/11/23 03:29:32;;;;;;;19.10;3.72;;;7.80;99.90;;;;;;5025106;28;20047;-66
2021/11/23 03:31:58;;;;;;;13.15;3.03;;;7.80;99.90;;;;;;5018643;28;20208;-66
2021/11/23 03:34:24;;;;;;;12.48;3.75;;;7.80;99.90;;;;;;5027429;28;20042;-65
2021/11/23 03:36:50;;;;;;;15.10;3.03;;;7.80;99.90;;;;;;5002350;28;20108;-66
2021/11/23 03:39:16;;;;;;;14.10;3.10;;;7.90;99.90;;;;;;5018934;28;20482;-66
2021/11/23 03:41:42;;;;;;;11.40;3.60;;;7.90;99.90;;;;;;5025567;28;20500;-66
2021/11/23 03:44:09;;;;;;;15.57;3.03;;;7.90;99.90;;;;;;5022514;28;20049;-66
2021/11/23 03:46:35;;;;;;;16.98;3.83;;;7.90;99.90;;;;;;5024567;28;20053;-66
2021/11/23 03:49:01;;;;;;;12.07;3.13;;;7.90;99.90;;;;;;5019506;28;20041;-66
2021/11/23 03:51:27;;;;;;;18.52;3.50;;;7.90;99.90;;;;;;5026106;28;20056;-66
2021/11/23 03:53:53;;;;;;;9.75;2.60;;;7.90;99.90;;;;;;5020397;28;20045;-66
2021/11/23 03:56:20;;;;;;;15.18;2.80;;;7.90;99.90;;;;;;5023352;28;20085;-66
2021/11/23 03:58:46;;;;;;;8.60;2.95;;;7.90;99.90;;;;;;5019589;28;20041;-66
2021/11/23 04:01:11;;;;;;;11.88;2.78;;;7.90;99.90;;;;;;5024082;28;20037;-66
2021/11/23 04:03:37;;;;;;;9.35;2.42;;;8.00;99.90;;;;;;5021475;28;20369;-65
2021/11/23 04:06:03;;;;;;;11.10;2.95;;;8.00;99.90;;;;;;5022832;28;20037;-65
2021/11/23 04:08:29;;;;;;;13.35;3.08;;;7.90;99.90;;;;;;5023031;28;20033;-66
2021/11/23 04:10:55;;;;;;;20.95;3.83;;;8.00;99.90;;;;;;5024634;28;20041;-66
2021/11/23 04:13:21;;;;;;;15.38;3.92;;;8.00;99.90;;;;;;5018191;28;20394;-66
2021/11/23 04:15:48;;;;;;;10.85;2.67;;;8.00;99.90;;;;;;5023378;28;20049;-66
2021/11/23 04:18:14;;;;;;;14.30;3.08;;;8.00;99.90;;;;;;5024895;28;20041;-64
2021/11/23 04:20:39;;;;;;;15.52;3.08;;;8.00;99.90;;;;;;5019197;28;20520;-65
2021/11/23 04:23:06;;;;;;;14.43;3.25;;;8.00;99.90;;;;;;5026103;28;20033;-65
2021/11/23 04:25:32;;;;;;;12.30;2.50;;;8.00;99.90;;;;;;5020478;28;20044;-66
2021/11/23 04:27:57;;;;;;;9.27;2.72;;;8.00;99.90;;;;;;5006379;28;20038;-65
2021/11/23 04:30:23;;;;;;;10.23;2.20;;;8.00;99.90;;;;;;5018871;28;20041;-66
2021/11/23 04:32:50;;;;;;;8.80;2.47;;;8.00;99.90;;;;;;5023770;28;21243;-65
2021/11/23 04:35:16;;;;;;;13.77;2.85;;;8.10;99.90;;;;;;4999937;28;20133;-65
2021/11/23 04:37:43;;;;;;;12.02;2.20;;;8.00;99.90;;;;;;5021022;28;20738;-65
2021/11/23 04:40:12;;;;;;;9.60;2.53;;;8.10;99.90;;;;;;5019230;28;20042;-63
2021/11/23 04:42:39;;;;;;;10.05;2.78;;;8.00;99.90;;;;;;5026274;28;20301;-63
2021/11/23 04:45:07;;;;;;;5.55;1.85;;;8.00;99.90;;;;;;5019577;28;20029;-63
2021/11/23 04:47:33;;;;;;;6.55;2.42;;;8.00;99.90;;;;;;5020559;28;20149;-63
2021/11/23 04:49:59;;;;;;;12.77;2.67;;;8.00;99.90;;;;;;5009734;28;20598;-64
2021/11/23 04:52:25;;;;;;;8.20;2.25;;;8.00;99.90;;;;;;5026614;28;20072;-64
2021/11/23 04:54:51;;;;;;;11.57;3.22;;;8.10;99.90;;;;;;5025674;28;20110;-64
2021/11/23 04:57:17;;;;;;;7.70;2.67;;;8.00;99.90;;;;;;5028255;28;20413;-64
2021/11/23 04:59:43;;;;;;;13.27;2.97;;;8.00;99.90;;;;;;5027880;28;20554;-64
2021/11/23 05:02:09;;;;;;;12.48;3.08;;;8.00;99.90;;;;;;5003023;28;20362;-64
2021/11/23 05:04:35;;;;;;;14.52;3.38;;;8.10;99.90;;;;;;5012363;28;20052;-64
2021/11/23 05:07:01;;;;;;;10.88;3.30;;;8.10;99.90;;;;;;5020939;28;20033;-64
2021/11/23 05:09:27;;;;;;;12.43;3.45;;;8.10;99.90;;;;;;5025911;28;20489;-64
2021/11/23 05:11:53;;;;;;;14.68;3.50;;;8.10;99.90;;;;;;5023831;28;20045;-64
2021/11/23 05:14:21;;;;;;;17.75;4.38;;;8.10;99.90;;;;;;5027777;28;20056;-64
2021/11/23 05:16:47;;;;;;;19.45;3.85;;;8.10;99.90;;;;;;5017736;28;20481;-64
2021/11/23 05:19:12;;;;;;;20.92;4.07;;;8.20;99.90;;;;;;5028935;28;20030;-64
2021/11/23 05:21:38;;;;;;;17.65;4.72;;;8.20;99.90;;;;;;4985995;28;20054;-64
2021/11/23 05:24:04;;;;;;;16.65;4.32;;;8.20;99.90;;;;;;5025731;28;20095;-64
2021/11/23 05:26:30;;;;;;;27.60;4.55;;;8.20;99.90;;;;;;5003857;28;20103;-65
2021/11/23 05:28:56;;;;;;;23.48;5.68;;;8.20;99.90;;;;;;5009382;28;20041;-64
2021/11/23 05:31:21;;;;;;;17.90;3.90;;;8.20;99.90;;;;;;5023010;28;20037;-64
2021/11/23 05:33:47;;;;;;;13.05;3.58;;;8.20;99.90;;;;;;5007149;28;20427;-64
2021/11/23 05:36:13;;;;;;;17.27;4.47;;;8.20;99.90;;;;;;5029764;28;20040;-64
2021/11/23 05:38:39;;;;;;;16.77;4.05;;;8.20;99.90;;;;;;5020031;28;20064;-64
2021/11/23 05:41:05;;;;;;;18.80;5.22;;;8.20;99.90;;;;;;5010534;28;20729;-64
2021/11/23 05:43:32;;;;;;;27.27;5.40;;;8.20;99.90;;;;;;5005554;28;20056;-64
2021/11/23 05:46:00;;;;;;;10.90;2.92;;;8.10;99.90;;;;;;5027152;28;20053;-64
2021/11/23 05:48:26;;;;;;;16.23;3.35;;;8.00;99.90;;;;;;5000940;28;20067;-64
2021/11/23 05:50:52;;;;;;;14.77;3.95;;;8.00;99.90;;;;;;5028014;28;20113;-64
2021/11/23 05:53:17;;;;;;;21.15;4.35;;;8.00;99.90;;;;;;5023225;28;20496;-64
2021/11/23 05:55:43;;;;;;;12.73;3.75;;;8.00;99.90;;;;;;5031460;28;20053;-64
2021/11/23 05:58:09;;;;;;;27.70;5.25;;;8.00;99.90;;;;;;5019150;28;20092;-64
2021/11/23 06:00:35;;;;;;;20.38;5.18;;;8.00;99.90;;;;;;5028904;28;20048;-64
2021/11/23 06:03:01;;;;;;;18.65;3.88;;;8.00;99.90;;;;;;5025508;28;20033;-64
2021/11/23 06:05:27;;;;;;;26.67;4.20;;;8.00;99.90;;;;;;5025806;28;20049;-64
2021/11/23 06:07:53;;;;;;;15.45;4.10;;;7.90;99.90;;;;;;5020820;28;20061;-64
2021/11/23 06:10:20;;;;;;;16.30;3.25;;;7.90;99.90;;;;;;5027580;28;20033;-64
2021/11/23 06:12:45;;;;;;;15.98;3.50;;;7.90;99.90;;;;;;5027717;28;20189;-64
2021/11/23 06:15:13;;;;;;;16.10;3.22;;;7.80;99.90;;;;;;5021463;28;20402;-64
2021/11/23 06:17:40;;;;;;;10.55;3.58;;;7.80;99.90;;;;;;5023257;28;20072;-64
2021/11/23 06:20:07;;;;;;;15.48;3.55;;;7.70;99.90;;;;;;5004116;28;20048;-64
2021/11/23 06:22:33;;;;;;;18.23;2.90;;;7.70;99.90;;;;;;5028493;28;20040;-64
2021/11/23 06:24:59;;;;;;;13.05;3.22;;;7.60;99.90;;;;;;5019078;28;20045;-64
2021/11/23 06:27:24;;;;;;;12.07;2.55;;;7.50;99.90;;;;;;5025697;28;20054;-64
2021/11/23 06:29:50;;;;;;;13.00;2.88;;;7.50;99.90;;;;;;5022636;28;20124;-64
2021/11/23 06:32:17;;;;;;;22.48;3.33;;;7.50;99.90;;;;;;5009717;28;20124;-64
2021/11/23 06:34:43;;;;;;;25.17;3.78;;;7.40;99.90;;;;;;5021399;28;20453;-64
2021/11/23 06:37:09;;;;;;;11.52;2.60;;;7.40;99.90;;;;;;5029156;28;20034;-64
2021/11/23 06:39:34;;;;;;;26.23;3.20;;;7.30;99.90;;;;;;5023477;28;20469;-64
2021/11/23 06:42:00;;;;;;;8.23;2.15;;;7.30;99.90;;;;;;5022907;28;20037;-64
2021/11/23 06:44:26;;;;;;;13.55;2.40;;;7.10;99.90;;;;;;5004474;28;20047;-64
2021/11/23 06:46:52;;;;;;;20.60;2.70;;;7.10;99.90;;;;;;5001840;28;20104;-64
2021/11/23 06:49:17;;;;;;;26.55;3.08;;;7.00;99.90;;;;;;5021664;28;20053;-64
2021/11/23 06:51:43;;;;;;;6.60;1.45;;;7.00;99.90;;;;;;5023012;28;20120;-64
2021/11/23 06:54:09;;;;;;;19.80;2.90;;;6.90;99.90;;;;;;5025538;28;20041;-64
2021/11/23 06:56:35;;;;;;;13.18;2.25;;;7.00;99.90;;;;;;5021657;28;20486;-64
2021/11/23 06:59:01;;;;;;;10.43;2.13;;;6.90;99.90;;;;;;5020554;28;20068;-64
2021/11/23 07:01:27;;;;;;;21.60;3.20;;;6.80;99.90;;;;;;5016535;28;20087;-65
2021/11/23 07:03:53;;;;;;;13.02;2.50;;;6.70;99.90;;;;;;5022767;28;20432;-65
2021/11/23 07:06:19;;;;;;;19.40;3.50;;;6.70;99.90;;;;;;5000392;28;20429;-65
2021/11/23 07:08:44;;;;;;;60.08;4.50;;;6.70;99.90;;;;;;5025979;28;20048;-66
2021/11/23 07:11:12;;;;;;;12.32;2.53;;;6.70;99.90;;;;;;5011034;28;20474;-65
2021/11/23 07:13:37;;;;;;;9.77;2.92;;;6.70;99.90;;;;;;5005319;28;20057;-65
2021/11/23 07:16:04;;;;;;;11.07;2.75;;;6.70;99.90;;;;;;5017871;28;20489;-65
2021/11/23 07:18:30;;;;;;;12.63;3.10;;;6.70;99.90;;;;;;5028244;28;20034;-65
2021/11/23 07:20:55;;;;;;;26.02;3.78;;;6.80;99.90;;;;;;5020774;28;20029;-65
2021/11/23 07:23:23;;;;;;;18.27;3.22;;;6.80;99.90;;;;;;5023454;28;20517;-65
2021/11/23 07:25:49;;;;;;;16.45;2.70;;;6.80;99.90;;;;;;5022572;28;20033;-65
2021/11/23 07:28:15;;;;;;;13.93;2.90;;;6.80;99.90;;;;;;5022236;28;20041;-65
2021/11/23 07:30:41;;;;;;;10.50;2.65;;;6.90;99.90;;;;;;5022862;28;20104;-65
2021/11/23 07:33:06;;;;;;;11.70;2.85;;;6.90;99.90;;;;;;5019623;28;20053;-65
2021/11/23 07:35:32;;;;;;;6.68;2.22;;;6.90;99.90;;;;;;5018313;28;20740;-65
2021/11/23 07:37:59;;;;;;;12.75;2.58;;;6.90;99.90;;;;;;5012387;28;20042;-65
2021/11/23 07:40:24;;;;;;;12.60;2.58;;;6.90;99.90;;;;;;5000403;28;20049;-65
2021/11/23 07:42:50;;;;;;;12.98;1.90;;;6.90;99.90;;;;;;5016934;28;20042;-65
2021/11/23 07:45:16;;;;;;;9.65;1.73;;;6.90;99.90;;;;;;5008373;28;20255;-65
2021/11/23 07:47:42;;;;;;;13.55;1.85;;;6.90;99.90;;;;;;5018171;28;20336;-65
2021/11/23 07:50:08;;;;;;;10.27;1.40;;;6.90;99.90;;;;;;5015577;28;20521;-65
2021/11/23 07:52:34;;;;;;;8.07;1.25;;;6.80;99.90;;;;;;5015444;28;20041;-65
2021/11/23 07:55:01;;;;;;;9.48;1.63;;;6.90;99.90;;;;;;5017551;28;20060;-65
2021/11/23 07:57:26;;;;;;;4.15;1.38;;;6.80;99.90;;;;;;5013235;28;20078;-65
2021/11/23 07:59:52;;;;;;;7.40;1.58;;;6.80;99.90;;;;;;5024749;28;20041;-65
2021/11/23 08:02:18;;;;;;;11.98;1.55;;;6.90;99.90;;;;;;4998320;28;20042;-65
2021/11/23 08:04:43;;;;;;;11.07;2.00;;;6.90;99.90;;;;;;5005010;28;20100;-65
2021/11/23 08:07:09;;;;;;;8.05;1.35;;;6.90;99.90;;;;;;5015520;28;20049;-65
2021/11/23 08:09:35;;;;;;;9.25;1.30;;;7.00;99.90;;;;;;4999768;28;20041;-65
2021/11/23 08:12:02;;;;;;;10.65;1.73;;;7.00;99.90;;;;;;5016243;28;20041;-65
2021/11/23 08:14:28;;;;;;;15.23;1.25;;;7.00;99.90;;;;;;5000437;28;20041;-65
2021/11/23 08:16:54;;;;;;;12.43;1.67;;;7.00;99.90;;;;;;5019897;28;20080;-65
2021/11/23 08:19:20;;;;;;;15.82;2.03;;;7.00;99.90;;;;;;5020735;28;20255;-65
2021/11/23 08:21:46;;;;;;;10.80;1.88;;;7.10;99.90;;;;;;5000593;28;20462;-65
2021/11/23 08:24:12;;;;;;;13.20;2.13;;;7.20;99.90;;;;;;5015257;28;20134;-65
2021/11/23 08:26:39;;;;;;;11.80;1.80;;;7.20;99.90;;;;;;5015468;28;20069;-65
2021/11/23 08:29:05;;;;;;;9.50;2.13;;;7.30;99.90;;;;;;5001435;28;20049;-65
2021/11/23 08:31:30;;;;;;;10.30;2.03;;;7.30;99.90;;;;;;5025482;28;20030;-65
2021/11/23 08:33:59;;;;;;;10.43;2.40;;;7.60;99.90;;;;;;5023745;28;20354;-65
2021/11/23 08:36:25;;;;;;;9.75;1.70;;;7.70;99.90;;;;;;5028736;28;20500;-65
2021/11/23 08:38:50;;;;;;;12.18;1.83;;;7.70;99.90;;;;;;5007806;28;20058;-65
2021/11/23 08:41:17;;;;;;;9.60;1.30;;;7.80;99.90;;;;;;5029616;28;20030;-65
2021/11/23 08:43:42;;;;;;;9.68;0.95;;;7.80;99.90;;;;;;5025212;28;20375;-65
2021/11/23 08:46:08;;;;;;;7.95;1.55;;;7.80;99.90;;;;;;4985821;28;20100;-65
2021/11/23 08:48:35;;;;;;;10.48;1.25;;;7.90;99.90;;;;;;5024914;28;20409;-64
2021/11/23 08:51:01;;;;;;;13.30;1.70;;;8.00;99.90;;;;;;5024600;28;20326;-64
2021/11/23 08:53:27;;;;;;;6.50;1.20;;;8.10;99.90;;;;;;5029515;28;20045;-65
2021/11/23 08:55:52;;;;;;;14.95;1.40;;;8.30;99.90;;;;;;5023750;28;20041;-65
2021/11/23 08:58:18;;;;;;;11.70;1.33;;;8.40;99.90;;;;;;5026975;28;20939;-65
2021/11/23 09:00:45;;;;;;;8.43;1.27;;;8.50;99.90;;;;;;5024997;28;20030;-65
2021/11/23 09:03:10;;;;;;;14.20;1.40;;;8.60;99.90;;;;;;5025661;28;20087;-65
2021/11/23 09:05:36;;;;;;;11.57;1.20;;;8.70;99.90;;;;;;5019237;28;20036;-66
2021/11/23 09:08:06;;;;;;;8.23;1.20;;;8.80;99.90;;;;;;5029020;28;20033;-65
2021/11/23 09:10:37;;;;;;;4.32;0.63;;;8.90;99.90;;;;;;5024789;28;20037;-65
2021/11/23 09:13:04;;;;;;;10.60;1.10;;;8.90;99.90;;;;;;5030285;28;20037;-66
2021/11/23 09:15:31;;;;;;;10.02;1.25;;;8.90;99.90;;;;;;5023774;28;20121;-66
2021/11/23 09:18:02;;;;;;;6.80;1.27;;;8.80;99.90;;;;;;5032010;28;20618;-66
2021/11/23 09:20:35;;;;;;;4.55;1.25;;;8.80;99.90;;;;;;5022012;28;20117;-66
2021/11/23 09:23:04;;;;;;;7.35;1.05;;;8.70;99.90;;;;;;5027630;28;20412;-66
2021/11/23 09:25:30;;;;;;;9.82;1.67;;;8.60;99.90;;;;;;5020907;28;20033;-66
2021/11/23 09:27:59;;;;;;;10.20;1.40;;;8.60;99.90;;;;;;5028818;28;20049;-66
2021/11/23 09:30:25;;;;;;;6.03;0.98;;;8.50;99.90;;;;;;5028764;28;20497;-66
2021/11/23 09:32:51;;;;;;;10.10;1.27;;;8.60;99.90;;;;;;5021539;28;20037;-66
2021/11/23 09:35:17;;;;;;;4.65;1.02;;;8.60;99.90;;;;;;5027723;28;20520;-65
2021/11/23 09:37:43;;;;;;;3.80;0.98;;;8.60;99.90;;;;;;5022049;28;20036;-66
2021/11/23 09:40:10;;;;;;;4.63;0.60;;;8.60;99.90;;;;;;5027105;28;20056;-66
2021/11/23 09:42:36;;;;;;;5.50;1.02;;;8.60;99.90;;;;;;5018698;28;20033;-66
2021/11/23 09:45:04;;;;;;;7.70;0.70;;;8.60;99.90;;;;;;5030640;28;20522;-66
2021/11/23 09:47:30;;;;;;;6.03;0.75;;;8.60;99.90;;;;;;5020204;28;20213;-65
2021/11/23 09:49:59;;;;;;;3.75;0.60;;;8.70;99.90;;;;;;5029351;28;20049;-66
2021/11/23 09:52:25;;;;;;;4.10;1.50;;;8.70;99.90;;;;;;5022610;28;20045;-66
2021/11/23 09:54:51;;;;;;;7.93;1.00;;;8.70;99.90;;;;;;5009338;28;20041;-66
2021/11/23 09:57:17;;;;;;;5.15;0.70;;;8.80;99.90;;;;;;5023103;28;20116;-66
2021/11/23 09:59:43;;;;;;;5.93;0.63;;;8.70;99.90;;;;;;5031176;28;20034;-66
2021/11/23 10:02:09;;;;;;;9.45;0.95;;;8.80;99.90;;;;;;5019411;28;20045;-66
2021/11/23 10:04:37;;;;;;;6.72;0.50;;;8.80;99.90;;;;;;5031677;28;20103;-66
2021/11/23 10:07:08;;;;;;;4.32;0.77;;;8.80;99.90;;;;;;5025586;28;20482;-66
2021/11/23 10:09:42;;;;;;;7.43;1.00;;;8.80;99.90;;;;;;5027716;28;20041;-66
2021/11/23 10:12:25;;;;;;;5.40;0.60;;;8.80;99.90;;;;;;5025928;28;20574;-66
2021/11/23 10:15:14;;;;;;;6.30;0.90;;;8.90;99.90;;;;;;5026716;28;20037;-66
2021/11/23 10:17:42;;;;;;;8.00;0.82;;;9.00;99.90;;;;;;5023269;28;20505;-66
2021/11/23 10:20:27;;;;;;;8.65;1.10;;;9.20;99.90;;;;;;5024781;28;20041;-66
2021/11/23 10:22:56;;;;;;;6.43;1.00;;;9.40;99.90;;;;;;5022126;28;20116;-66
2021/11/23 10:25:28;;;;;;;7.07;1.70;;;9.50;99.90;;;;;;5012970;28;20371;-66
2021/11/23 10:27:54;;;;;;;6.20;0.98;;;9.50;99.90;;;;;;5022946;28;20311;-66
2021/11/23 10:30:20;;;;;;;5.45;1.20;;;9.60;99.90;;;;;;5029160;28;20037;-66
2021/11/23 10:32:51;;;;;;;10.10;1.33;;;9.60;99.90;;;;;;5024165;28;20042;-66
2021/11/23 10:35:21;;;;;;;5.32;0.82;;;9.60;99.90;;;;;;5027058;28;20132;-66
2021/11/23 10:37:47;;;;;;;8.15;1.15;;;9.50;99.90;;;;;;5026357;28;20073;-66
2021/11/23 10:40:17;;;;;;;7.57;1.20;;;9.40;99.90;;;;;;5018643;28;20445;-66
2021/11/23 10:42:50;;;;;;;8.35;0.90;;;9.30;99.90;;;;;;5021328;28;20072;-66
2021/11/23 10:45:17;;;;;;;9.02;0.70;;;9.30;99.90;;;;;;5020399;28;20254;-66
2021/11/23 10:47:46;;;;;;;6.97;0.82;;;9.20;99.90;;;;;;5028759;28;20057;-66
2021/11/23 10:50:14;;;;;;;5.90;1.00;;;9.20;99.90;;;;;;5016355;28;20092;-66
2021/11/23 10:52:46;;;;;;;4.78;0.70;;;9.20;99.90;;;;;;5016652;28;20045;-66
2021/11/23 10:55:29;;;;;;;6.78;1.35;;;9.20;99.90;;;;;;5002155;28;20103;-66
2021/11/23 10:57:58;;;;;;;9.25;0.82;;;9.20;99.90;;;;;;5004324;28;20045;-66
2021/11/23 11:00:28;;;;;;;6.07;0.57;;;9.20;99.90;;;;;;5018816;28;20038;-66
2021/11/23 11:02:59;;;;;;;6.85;0.80;;;9.20;99.90;;;;;;5027689;28;20029;-66
2021/11/23 11:05:25;;;;;;;5.90;0.63;;;9.20;99.90;;;;;;5000275;28;20041;-66
2021/11/23 11:07:54;;;;;;;5.80;0.60;;;9.30;99.90;;;;;;5026588;28;20050;-66
2021/11/23 11:10:20;;;;;;;5.68;0.60;;;9.20;99.90;;;;;;5001391;28;20132;-66
2021/11/23 11:12:46;;;;;;;6.22;0.80;;;9.20;99.90;;;;;;5022811;28;20037;-66
2021/11/23 11:15:14;;;;;;;6.07;0.70;;;9.20;99.90;;;;;;5021459;28;20521;-66
2021/11/23 11:17:44;;;;;;;5.93;0.80;;;9.20;99.90;;;;;;5027329;28;20041;-66
2021/11/23 11:20:10;;;;;;;6.10;1.17;;;9.20;99.90;;;;;;5015732;28;20061;-66
2021/11/23 11:22:51;;;;;;;5.47;0.98;;;9.20;99.90;;;;;;5028632;28;20568;-66
2021/11/23 11:25:25;;;;;;;5.55;0.68;;;9.20;99.90;;;;;;5019261;28;20076;-66
2021/11/23 11:27:52;;;;;;;6.10;0.70;;;9.30;99.90;;;;;;5002939;28;20099;-66
2021/11/23 11:30:29;;;;;;;6.75;0.70;;;9.20;99.90;;;;;;5022228;28;20295;-66
2021/11/23 11:33:04;;;;;;;11.75;1.02;;;9.30;99.90;;;;;;5009447;28;20112;-66
2021/11/23 11:35:50;;;;;;;6.72;0.77;;;9.30;99.90;;;;;;5020426;28;20099;-66
2021/11/23 11:38:28;;;;;;;6.63;0.77;;;9.30;99.90;;;;;;5023246;28;20064;-66
2021/11/23 11:41:03;;;;;;;8.43;0.70;;;9.40;99.90;;;;;;5024226;28;20033;-66
2021/11/23 11:43:37;;;;;;;5.72;0.85;;;9.40;99.90;;;;;;5024248;28;20537;-66
2021/11/23 11:46:04;;;;;;;5.10;0.85;;;9.40;99.90;;;;;;5020775;28;20037;-66
2021/11/23 11:48:33;;;;;;;8.93;0.82;;;9.50;99.90;;;;;;5028664;28;20084;-66
2021/11/23 11:51:30;;;;;;;4.18;0.70;;;9.50;99.90;;;;;;5001447;28;20168;-66
2021/11/23 11:54:23;;;;;;;8.60;1.10;;;9.50;99.90;;;;;;5021241;28;20061;-66
2021/11/23 11:56:51;;;;;;;7.13;0.93;;;9.50;99.90;;;;;;5009298;28;20073;-66
2021/11/23 11:59:16;;;;;;;5.57;0.80;;;9.60;99.90;;;;;;5009091;28;20536;-66
2021/11/23 12:01:50;;;;;;;5.35;0.70;;;9.70;99.90;;;;;;5018072;28;20065;-66
2021/11/23 12:04:21;;;;;;;7.40;0.70;;;9.90;99.90;;;;;;5026395;28;20120;-66
2021/11/23 12:06:56;;;;;;;7.75;0.98;;;10.00;99.90;;;;;;5026721;28;20091;-66
2021/11/23 12:09:41;;;;;;;7.03;0.63;;;10.00;99.90;;;;;;5012601;28;20049;-66
2021/11/23 12:12:10;;;;;;;8.38;1.00;;;10.00;99.90;;;;;;5023879;28;20974;-66
2021/11/23 12:14:52;;;;;;;6.03;0.85;;;10.00;99.90;;;;;;5033874;28;20046;-66
2021/11/23 12:17:54;;;;;;;9.27;0.68;;;10.00;99.90;;;;;;5024918;28;20041;-66
2021/11/23 12:20:54;;;;;;;6.88;0.88;;;10.00;99.90;;;;;;5028767;28;20338;-66
2021/11/23 12:23:29;;;;;;;6.70;0.57;;;9.90;99.90;;;;;;5020971;28;20038;-66
2021/11/23 12:26:07;;;;;;;4.57;0.40;;;9.90;99.90;;;;;;5031597;28;20073;-66
2021/11/23 12:28:33;;;;;;;3.65;0.50;;;9.90;99.90;;;;;;5008861;28;20124;-66
2021/11/23 12:31:07;;;;;;;5.72;0.40;;;9.90;99.90;;;;;;4995995;28;21049;-66
2021/11/23 12:33:46;;;;;;;3.38;0.50;;;9.90;99.90;;;;;;5027369;28;20423;-66
2021/11/23 12:36:15;;;;;;;3.35;0.43;;;9.90;99.90;;;;;;5032168;28;20498;-66
2021/11/23 12:38:41;;;;;;;3.35;0.30;;;9.90;99.90;;;;;;5003832;28;20040;-66
2021/11/23 12:41:22;;;;;;;2.28;0.32;;;9.90;99.90;;;;;;5033966;28;20030;-66
2021/11/23 12:43:49;;;;;;;2.55;0.30;;;9.90;99.90;;;;;;5023675;28;20567;-66
2021/11/23 12:46:21;;;;;;;3.10;0.60;;;9.80;99.90;;;;;;5030356;28;20410;-66
2021/11/23 12:48:50;;;;;;;3.97;0.45;;;9.80;99.90;;;;;;5030372;28;20520;-66
2021/11/23 12:51:22;;;;;;;2.00;0.30;;;9.70;99.90;;;;;;5029735;28;20117;-66
2021/11/23 12:54:03;;;;;;;4.72;0.20;;;9.70;99.90;;;;;;5026779;28;20501;-66